Aviation Digital Data Service (ADDS)

Output produced by METARs form (0906 UTC 26 January 2020)
found at http://www.aviationweather.gov/metar/data/
 
Forecast for: WMKI (IPOH , MY)
Text: TAF WMKI 260500Z 2606/2706 VRB03KT 9999 FEW019
Forecast period: 0600 to 2100 UTC 26 January 2020
Forecast type: FROM: standard forecast or significant change
Winds: variable direction winds at 3 MPH (3 knots; 1.5 m/s)
Visibility: 6 or more miles 10+ km)
Ceiling: at least 12,000 feet AGL
Clouds: few clouds at 1900 feet AGL
Weather: no significant weather forecast for this period
Text: TEMPO 2610/2614 22007KT
Forecast period: 1000 to 1400 UTC 26 January 2020
Forecast type: TEMPORARY: The following changes expected for less than half the time period
Winds: from the SW (220 degrees) at 8 MPH (7 knots; 3.6 m/s)
Visibility: missing
Ceiling: unknown
Clouds: missing
Weather: no significant weather forecast for this period
Text: BECMG 2621/2623 04005KT 8000 FEW030
Forecast period: 2100 UTC 26 January 2020 to 0600 UTC 27 January 2020
Forecast type: BECOMING: Conditions expected to become as follows by 2300 UTC 26 January 2020
Winds: from the NE (40 degrees) at 6 MPH (5 knots; 2.6 m/s)
Visibility: 5 miles (8 km)
Ceiling: at least 12,000 feet AGL
Clouds: few clouds at 3000 feet AGL
Weather: no significant weather forecast for this period